createdAt,value
2023-02-25T00:00:19.892Z,100613.78
2023-02-25T00:02:52.629Z,100617.00
2023-02-25T00:05:26.335Z,100622.75
2023-02-25T00:07:58.311Z,100621.59
2023-02-25T00:10:30.368Z,100625.19
2023-02-25T00:13:17.887Z,100629.75
2023-02-25T00:15:50.496Z,100619.09
2023-02-25T00:18:22.516Z,100616.56
2023-02-25T00:20:54.982Z,100607.63
2023-02-25T00:23:28.579Z,100612.91
2023-02-25T00:26:09.038Z,100617.13
2023-02-25T00:28:41.684Z,100601.06
2023-02-25T00:31:22.005Z,100612.69
2023-02-25T00:33:54.242Z,100622.28
2023-02-25T00:36:27.641Z,100611.50
2023-02-25T00:38:59.823Z,100615.88
2023-02-25T00:41:31.844Z,100617.59
2023-02-25T00:44:04.675Z,100609.94
2023-02-25T00:46:36.737Z,100616.69
2023-02-25T00:49:08.720Z,100607.59
2023-02-25T00:51:40.675Z,100591.22
2023-02-25T00:54:13.079Z,100612.59
2023-02-25T00:56:45.002Z,100619.66
2023-02-25T00:59:17.166Z,100611.19
2023-02-25T01:01:49.195Z,100611.75
2023-02-25T01:04:21.402Z,100606.41
2023-02-25T01:06:54.560Z,100607.19
2023-02-25T01:09:26.711Z,100574.19
2023-02-25T01:11:58.612Z,100609.09
2023-02-25T01:14:31.657Z,100611.44
2023-02-25T01:17:03.642Z,100617.97
2023-02-25T01:19:35.604Z,100627.38
2023-02-25T01:22:07.861Z,100613.16
2023-02-25T01:24:39.903Z,100616.34
2023-02-25T01:27:11.914Z,100572.69
2023-02-25T01:29:43.997Z,100573.34
2023-02-25T01:32:16.149Z,100609.34
2023-02-25T01:34:48.156Z,100612.13
2023-02-25T01:37:20.120Z,100620.56
2023-02-25T01:39:52.150Z,100626.69
2023-02-25T01:42:24.322Z,100614.25
2023-02-25T01:45:32.765Z,100630.94
2023-02-25T01:48:18.790Z,100624.22
2023-02-25T01:50:58.167Z,100626.28
2023-02-25T01:53:50.417Z,100584.16
2023-02-25T01:56:26.710Z,100626.44
2023-02-25T01:59:00.118Z,100629.25
2023-02-25T02:01:36.729Z,100614.72
2023-02-25T02:04:13.000Z,100641.31
2023-02-25T02:06:48.116Z,100636.75
2023-02-25T02:09:26.432Z,100643.63
2023-02-25T02:12:05.430Z,100647.03
2023-02-25T02:14:42.290Z,100637.50
2023-02-25T02:17:32.400Z,100641.06
2023-02-25T02:20:13.152Z,100630.34
2023-02-25T02:22:49.726Z,100635.56
2023-02-25T02:25:36.490Z,100633.75
2023-02-25T02:28:39.548Z,100630.19
2023-02-25T02:31:33.369Z,100631.84
2023-02-25T02:34:46.173Z,100636.00
2023-02-25T02:37:26.934Z,100638.75
2023-02-25T02:40:41.940Z,100634.94
2023-02-25T02:43:34.033Z,100616.56
2023-02-25T02:46:35.298Z,100632.34
2023-02-25T02:49:20.706Z,100632.34
2023-02-25T02:52:03.679Z,100635.78
2023-02-25T02:54:43.341Z,100638.38
2023-02-25T02:57:18.622Z,100638.69
2023-02-25T02:59:58.465Z,100644.88
2023-02-25T03:02:38.649Z,100644.06
2023-02-25T03:05:19.273Z,100645.00
2023-02-25T03:08:10.281Z,100653.66
2023-02-25T03:10:42.854Z,100649.41
2023-02-25T03:13:16.481Z,100631.94
2023-02-25T03:15:51.867Z,100651.19
2023-02-25T03:18:39.211Z,100656.53
2023-02-25T03:21:21.677Z,100650.78
2023-02-25T03:23:55.054Z,100646.47
2023-02-25T03:26:33.701Z,100649.88
2023-02-25T03:29:05.894Z,100645.97
2023-02-25T03:31:50.262Z,100640.31
2023-02-25T03:34:33.548Z,100644.91
2023-02-25T03:37:23.544Z,100647.63
2023-02-25T03:40:01.060Z,100641.41
2023-02-25T03:42:36.575Z,100647.31
2023-02-25T03:45:13.421Z,100643.72
2023-02-25T03:47:46.071Z,100656.84
2023-02-25T03:50:33.350Z,100649.03
2023-02-25T03:53:05.841Z,100652.53
2023-02-25T03:55:37.797Z,100657.72
2023-02-25T03:58:10.235Z,100652.44
2023-02-25T04:00:46.961Z,100656.84
2023-02-25T04:03:19.177Z,100653.06
2023-02-25T04:05:51.140Z,100650.22
2023-02-25T04:08:23.130Z,100651.22
2023-02-25T04:10:55.294Z,100658.78
2023-02-25T04:13:27.170Z,100660.47
2023-02-25T04:15:59.271Z,100655.44
2023-02-25T04:18:31.291Z,100663.44
2023-02-25T04:21:06.375Z,100664.25
2023-02-25T04:23:38.353Z,100661.47
2023-02-25T04:26:10.310Z,100659.63
2023-02-25T04:28:42.232Z,100656.16
2023-02-25T04:31:14.316Z,100665.78
2023-02-25T04:33:49.999Z,100658.56
2023-02-25T04:36:34.453Z,100662.94
2023-02-25T04:39:06.506Z,100673.44
2023-02-25T04:41:38.848Z,100657.56
2023-02-25T04:44:11.338Z,100667.44
2023-02-25T04:46:43.618Z,100665.69
2023-02-25T04:49:15.536Z,100671.63
2023-02-25T04:51:49.556Z,100675.31
2023-02-25T04:54:21.949Z,100677.75
2023-02-25T04:56:53.880Z,100675.06
2023-02-25T04:59:26.713Z,100693.22
2023-02-25T05:01:58.727Z,100686.22
2023-02-25T05:04:30.796Z,100684.59
2023-02-25T05:07:04.348Z,100684.59
2023-02-25T05:09:36.409Z,100679.94
2023-02-25T05:12:08.540Z,100678.34
2023-02-25T05:14:40.513Z,100663.91
2023-02-25T05:17:13.342Z,100668.63
2023-02-25T05:19:45.268Z,100671.97
2023-02-25T05:22:17.386Z,100632.44
2023-02-25T05:24:49.288Z,100666.19
2023-02-25T05:27:21.365Z,100684.72
2023-02-25T05:29:54.704Z,100675.81
2023-02-25T05:32:26.916Z,100681.81
2023-02-25T05:34:59.087Z,100676.44
2023-02-25T05:37:32.429Z,100677.94
2023-02-25T05:40:05.280Z,100669.13
2023-02-25T05:42:37.874Z,100674.31
2023-02-25T05:45:11.378Z,100667.00
2023-02-25T05:47:44.039Z,100667.81
2023-02-25T05:50:18.844Z,100647.31
2023-02-25T05:52:50.781Z,100675.13
2023-02-25T05:55:23.632Z,100687.28
2023-02-25T05:57:55.584Z,100686.53
2023-02-25T06:00:27.958Z,100688.34
2023-02-25T06:03:00.064Z,100693.53
2023-02-25T06:05:32.653Z,100681.34
2023-02-25T06:08:04.801Z,100708.84
2023-02-25T06:10:38.382Z,100709.72
2023-02-25T06:13:12.100Z,100711.59
2023-02-25T06:15:44.013Z,100702.81
2023-02-25T06:18:15.932Z,100705.88
2023-02-25T06:20:47.859Z,100711.66
2023-02-25T06:23:19.894Z,100715.81
2023-02-25T06:25:51.821Z,100714.00
2023-02-25T06:28:24.056Z,100707.91
2023-02-25T06:30:55.982Z,100708.63
2023-02-25T06:33:31.621Z,100711.88
2023-02-25T06:36:05.244Z,100727.66
2023-02-25T06:38:37.599Z,100720.69
2023-02-25T06:41:15.705Z,100722.38
2023-02-25T06:43:52.237Z,100725.72
2023-02-25T06:46:26.822Z,100725.63
2023-02-25T06:48:59.073Z,100725.56
2023-02-25T06:51:31.006Z,100728.22
2023-02-25T06:54:04.631Z,100723.59
2023-02-25T06:56:36.588Z,100733.25
2023-02-25T06:59:08.873Z,100731.63
2023-02-25T07:01:41.782Z,100737.91
2023-02-25T07:04:19.373Z,100720.16
2023-02-25T07:06:51.435Z,100739.69
2023-02-25T07:09:23.416Z,100744.63
2023-02-25T07:11:55.403Z,100749.38
2023-02-25T07:14:27.354Z,100746.69
2023-02-25T07:16:59.308Z,100751.06
2023-02-25T07:19:31.357Z,100751.34
2023-02-25T07:22:05.441Z,100753.88
2023-02-25T07:24:37.761Z,100743.03
2023-02-25T07:27:12.047Z,100744.16
2023-02-25T07:29:44.016Z,100770.16
2023-02-25T07:32:16.134Z,100771.53
2023-02-25T07:34:48.330Z,100778.56
2023-02-25T07:37:20.333Z,100776.00
2023-02-25T07:39:52.354Z,100768.88
2023-02-25T07:42:24.282Z,100781.22
2023-02-25T07:44:56.251Z,100758.53
2023-02-25T07:47:28.263Z,100785.41
2023-02-25T07:50:00.237Z,100776.13
2023-02-25T07:52:32.453Z,100788.25
2023-02-25T07:55:06.179Z,100788.25
2023-02-25T07:57:38.150Z,100787.28
2023-02-25T08:00:11.068Z,100771.06
2023-02-25T08:02:44.808Z,100777.19
2023-02-25T08:05:21.888Z,100782.47
2023-02-25T08:07:53.895Z,100794.66
2023-02-25T08:10:25.866Z,100803.69
2023-02-25T08:12:57.969Z,100796.88
2023-02-25T08:15:29.904Z,100806.66
2023-02-25T08:18:01.853Z,100808.44
2023-02-25T08:20:33.792Z,100812.03
2023-02-25T08:23:06.431Z,100807.00
2023-02-25T08:25:38.361Z,100814.31
2023-02-25T08:28:10.421Z,100814.75
2023-02-25T08:30:42.431Z,100770.53
2023-02-25T08:33:14.671Z,100786.72
2023-02-25T08:35:46.707Z,100810.50
2023-02-25T08:38:18.943Z,100816.03
2023-02-25T08:40:50.976Z,100819.03
2023-02-25T08:43:22.897Z,100814.88
2023-02-25T08:45:56.719Z,100804.53
2023-02-25T08:48:28.847Z,100810.94
2023-02-25T08:51:09.461Z,100809.84
2023-02-25T08:53:41.734Z,100816.34
2023-02-25T08:56:16.484Z,100821.72
2023-02-25T08:58:48.375Z,100827.78
2023-02-25T09:01:20.999Z,100830.59
2023-02-25T09:03:53.774Z,100829.94
2023-02-25T09:06:28.210Z,100817.66
2023-02-25T09:09:00.182Z,100829.69
2023-02-25T09:11:33.307Z,100830.94
2023-02-25T09:14:05.573Z,100833.81
2023-02-25T09:16:38.289Z,100828.09
2023-02-25T09:19:12.552Z,100830.09
2023-02-25T09:21:48.250Z,100823.53
2023-02-25T09:24:20.618Z,100834.13
2023-02-25T09:26:52.622Z,100836.81
2023-02-25T09:29:24.579Z,100838.81
2023-02-25T09:31:56.688Z,100845.75
2023-02-25T09:34:28.834Z,100852.41
2023-02-25T09:37:04.452Z,100837.50
2023-02-25T09:39:36.434Z,100854.19
2023-02-25T09:42:22.314Z,100859.06
2023-02-25T09:45:01.816Z,100859.00
2023-02-25T09:47:52.294Z,100854.59
2023-02-25T09:50:35.352Z,100834.72
2023-02-25T09:53:13.327Z,100857.97
2023-02-25T09:55:51.739Z,100858.88
2023-02-25T09:58:50.725Z,100866.81
2023-02-25T10:01:51.147Z,100878.75
2023-02-25T10:04:40.292Z,100866.09
2023-02-25T10:07:26.735Z,100849.41
2023-02-25T10:10:07.604Z,100864.91
2023-02-25T10:13:23.185Z,100830.56
2023-02-25T10:16:11.415Z,100868.72
2023-02-25T10:18:55.338Z,100869.69
2023-02-25T10:21:49.014Z,100870.47
2023-02-25T10:24:36.098Z,100890.75
2023-02-25T10:27:27.651Z,100895.13
2023-02-25T10:30:22.573Z,100888.72
2023-02-25T10:32:56.164Z,100887.03
2023-02-25T10:35:33.896Z,100894.31
2023-02-25T10:38:06.060Z,100901.75
2023-02-25T10:40:40.579Z,100920.75
2023-02-25T10:43:30.435Z,100920.75
2023-02-25T10:46:15.641Z,100919.53
2023-02-25T10:48:57.247Z,100901.47
2023-02-25T10:51:30.119Z,100901.34
2023-02-25T10:54:07.291Z,100910.31
2023-02-25T10:56:45.402Z,100916.13
2023-02-25T10:59:38.501Z,100920.25
2023-02-25T11:02:31.551Z,100910.56
2023-02-25T11:05:03.884Z,100892.97
2023-02-25T11:07:42.103Z,100897.56
2023-02-25T11:10:22.185Z,100903.31
2023-02-25T11:12:57.881Z,100899.81
2023-02-25T11:15:45.862Z,100914.84
2023-02-25T11:18:30.807Z,100910.53
2023-02-25T11:21:10.530Z,100916.97
2023-02-25T11:23:42.370Z,100921.16
2023-02-25T11:26:39.360Z,100925.25
2023-02-25T11:29:41.420Z,100924.03
2023-02-25T11:32:21.669Z,100931.91
2023-02-25T11:35:09.021Z,100925.31
2023-02-25T11:37:46.454Z,100926.16
2023-02-25T11:40:31.744Z,100928.47
2023-02-25T11:43:17.383Z,100924.66
2023-02-25T11:45:57.196Z,100937.31
2023-02-25T11:48:52.018Z,100935.59
2023-02-25T11:51:34.993Z,100932.78
2023-02-25T11:54:23.495Z,100924.63
2023-02-25T11:57:21.823Z,100920.88
2023-02-25T12:00:20.873Z,100933.25
2023-02-25T12:03:10.628Z,100930.69
2023-02-25T12:06:05.681Z,100921.16
2023-02-25T12:08:56.983Z,100916.56
2023-02-25T12:11:56.902Z,100920.84
2023-02-25T12:15:06.204Z,100921.56
2023-02-25T12:18:06.073Z,100932.75
2023-02-25T12:21:19.837Z,100956.72
2023-02-25T12:24:28.842Z,100949.13
2023-02-25T12:27:47.326Z,100965.84
2023-02-25T12:31:12.451Z,100965.78
2023-02-25T12:33:53.414Z,100964.13
2023-02-25T12:36:59.551Z,100963.91
2023-02-25T12:39:40.044Z,100955.03
2023-02-25T12:42:23.752Z,100956.59
2023-02-25T12:45:20.356Z,100957.97
2023-02-25T12:48:21.869Z,100950.38
2023-02-25T12:51:33.393Z,100964.50
2023-02-25T12:54:45.489Z,100958.34
2023-02-25T12:57:55.634Z,100952.28
2023-02-25T13:01:01.803Z,100958.34
2023-02-25T13:04:17.623Z,100964.13
2023-02-25T13:07:41.593Z,100927.06
2023-02-25T13:10:25.380Z,100963.59
2023-02-25T13:13:21.367Z,100971.09
2023-02-25T13:16:31.962Z,100964.31
2023-02-25T13:19:31.640Z,100974.91
2023-02-25T13:22:33.035Z,100970.19
2023-02-25T13:25:58.308Z,100964.44
2023-02-25T13:29:01.849Z,100939.66
2023-02-25T13:32:10.018Z,100966.47
2023-02-25T13:35:09.359Z,100958.38
2023-02-25T13:38:11.346Z,100964.38
2023-02-25T13:41:49.246Z,100968.28
2023-02-25T13:44:48.910Z,100971.66
2023-02-25T13:47:50.618Z,100968.59
2023-02-25T13:50:50.745Z,100970.75
2023-02-25T13:53:46.780Z,100968.06
2023-02-25T13:56:55.391Z,100953.94
2023-02-25T13:59:48.346Z,100955.22
2023-02-25T14:02:46.551Z,100941.75
2023-02-25T14:05:58.807Z,100942.38
2023-02-25T14:09:13.778Z,100963.34
2023-02-25T14:12:12.825Z,100936.00
2023-02-25T14:15:07.758Z,100973.16
2023-02-25T14:18:32.165Z,100979.50
2023-02-25T14:21:35.722Z,100990.69
2023-02-25T14:24:35.048Z,100993.19
2023-02-25T14:27:53.539Z,100991.06
2023-02-25T14:30:58.717Z,100993.13
2023-02-25T14:33:51.600Z,100988.41
2023-02-25T14:37:17.898Z,100975.63
2023-02-25T14:39:55.507Z,100999.38
2023-02-25T14:42:41.915Z,100988.06
2023-02-25T14:45:32.410Z,100984.91
2023-02-25T14:48:14.100Z,100994.38
2023-02-25T14:51:07.761Z,100994.31
2023-02-25T14:54:33.204Z,101008.22
2023-02-25T14:57:51.329Z,101007.22
2023-02-25T15:00:57.059Z,101021.09
2023-02-25T15:03:51.659Z,101017.53
2023-02-25T15:06:50.803Z,101024.44
2023-02-25T15:09:59.840Z,101027.22
2023-02-25T15:12:31.827Z,101028.03
2023-02-25T15:15:29.949Z,101031.75
2023-02-25T15:19:06.821Z,101040.66
2023-02-25T15:21:49.120Z,101049.22
2023-02-25T15:24:23.654Z,101049.84
2023-02-25T15:26:57.445Z,101045.97
2023-02-25T15:29:32.382Z,101061.31
2023-02-25T15:32:30.064Z,101066.47
2023-02-25T15:35:07.845Z,101027.06
2023-02-25T15:37:52.117Z,101063.91
2023-02-25T15:40:32.900Z,101076.06
2023-02-25T15:43:42.614Z,101080.19
2023-02-25T15:46:23.390Z,101075.75
2023-02-25T15:49:13.686Z,101077.06
2023-02-25T15:51:53.134Z,101078.94
2023-02-25T15:54:28.344Z,101077.31
2023-02-25T15:57:10.626Z,101074.78
2023-02-25T15:59:57.812Z,101084.84
2023-02-25T16:02:30.034Z,101088.19
2023-02-25T16:05:35.714Z,101089.81
2023-02-25T16:08:24.682Z,101081.63
2023-02-25T16:10:58.323Z,101102.75
2023-02-25T16:13:36.632Z,101111.50
2023-02-25T16:16:13.184Z,101115.94
2023-02-25T16:18:50.587Z,101122.94
2023-02-25T16:21:38.966Z,101112.63
2023-02-25T16:24:13.148Z,101125.47
2023-02-25T16:27:03.342Z,101128.47
2023-02-25T16:29:54.297Z,101139.03
2023-02-25T16:32:53.178Z,101147.97
2023-02-25T16:35:28.865Z,101144.19
2023-02-25T16:39:11.555Z,101145.66
2023-02-25T16:41:43.987Z,101130.56
2023-02-25T16:44:26.812Z,101157.44
2023-02-25T16:46:59.372Z,101167.34
2023-02-25T16:49:38.725Z,101173.06
2023-02-25T16:52:30.354Z,101176.66
2023-02-25T16:55:12.317Z,101178.84
2023-02-25T16:58:24.812Z,101186.91
2023-02-25T17:01:01.268Z,101203.31
2023-02-25T17:03:48.380Z,101202.69
2023-02-25T17:06:20.780Z,101203.94
2023-02-25T17:08:52.710Z,101207.00
2023-02-25T17:11:26.431Z,101208.25
2023-02-25T17:14:04.294Z,101206.78
2023-02-25T17:16:43.669Z,101205.53
2023-02-25T17:19:20.584Z,101213.94
2023-02-25T17:21:58.794Z,101220.72
2023-02-25T17:24:33.487Z,101220.28
2023-02-25T17:27:12.384Z,101205.38
2023-02-25T17:29:44.504Z,101221.91
2023-02-25T17:32:29.482Z,101226.13
2023-02-25T17:35:05.016Z,101222.38
2023-02-25T17:37:37.389Z,101229.50
2023-02-25T17:40:10.447Z,101234.38
2023-02-25T17:42:42.593Z,101240.00
2023-02-25T17:45:39.922Z,101239.47
2023-02-25T17:48:27.303Z,101241.75
2023-02-25T17:51:06.031Z,101245.41
2023-02-25T17:53:46.526Z,101265.16
2023-02-25T17:56:25.377Z,101272.63
2023-02-25T17:59:27.955Z,101275.59
2023-02-25T18:02:02.681Z,101272.00
2023-02-25T18:04:41.424Z,101245.22
2023-02-25T18:07:32.589Z,101246.63
2023-02-25T18:10:26.377Z,101285.28
2023-02-25T18:13:01.300Z,101295.91
2023-02-25T18:15:34.722Z,101302.78
2023-02-25T18:18:18.355Z,101294.41
2023-02-25T18:20:57.865Z,101309.34
2023-02-25T18:23:31.985Z,101293.19
2023-02-25T18:26:12.852Z,101324.91
2023-02-25T18:28:47.984Z,101307.41
2023-02-25T18:31:20.381Z,101324.59
2023-02-25T18:33:52.869Z,101330.47
2023-02-25T18:36:28.232Z,101336.50
2023-02-25T18:39:04.611Z,101331.13
2023-02-25T18:41:36.569Z,101343.25
2023-02-25T18:44:14.896Z,101334.00
2023-02-25T18:46:47.080Z,101345.53
2023-02-25T18:49:19.737Z,101340.59
2023-02-25T18:51:52.217Z,101344.59
2023-02-25T18:54:24.522Z,101351.75
2023-02-25T18:56:56.476Z,101360.31
2023-02-25T18:59:28.411Z,101363.75
2023-02-25T19:02:00.351Z,101362.69
2023-02-25T19:04:32.413Z,101362.34
2023-02-25T19:07:11.646Z,101363.31
2023-02-25T19:09:43.642Z,101370.81
2023-02-25T19:12:15.609Z,101357.97
2023-02-25T19:15:04.801Z,101374.09
2023-02-25T19:17:36.705Z,101380.75
2023-02-25T19:20:13.624Z,101385.88
2023-02-25T19:22:49.864Z,101381.56
2023-02-25T19:25:28.198Z,101370.97
2023-02-25T19:28:00.332Z,101389.69
2023-02-25T19:30:37.849Z,101397.47
2023-02-25T19:33:12.133Z,101388.47
2023-02-25T19:35:44.767Z,101375.06
2023-02-25T19:38:20.499Z,101399.66
2023-02-25T19:40:52.604Z,101400.38
2023-02-25T19:43:24.635Z,101394.06
2023-02-25T19:45:56.604Z,101397.16
2023-02-25T19:48:28.716Z,101403.16
2023-02-25T19:51:07.544Z,101402.03
2023-02-25T19:53:39.768Z,101407.78
2023-02-25T19:56:12.755Z,101420.56
2023-02-25T19:58:44.695Z,101423.81
2023-02-25T20:01:17.274Z,101419.22
2023-02-25T20:03:51.098Z,101424.09
2023-02-25T20:06:26.201Z,101420.47
2023-02-25T20:09:01.310Z,101412.25
2023-02-25T20:11:33.816Z,101423.41
2023-02-25T20:14:06.950Z,101407.56
2023-02-25T20:16:40.551Z,101428.00
2023-02-25T20:19:12.537Z,101439.06
2023-02-25T20:21:44.515Z,101444.88
2023-02-25T20:24:16.673Z,101432.38
2023-02-25T20:26:48.906Z,101452.34
2023-02-25T20:29:21.532Z,101446.59
2023-02-25T20:31:53.811Z,101457.03
2023-02-25T20:34:27.536Z,101453.69
2023-02-25T20:37:05.725Z,101449.69
2023-02-25T20:39:37.586Z,101460.25
2023-02-25T20:42:18.220Z,101456.63
2023-02-25T20:44:52.482Z,101458.97
2023-02-25T20:47:32.004Z,101461.09
2023-02-25T20:50:07.466Z,101468.81
2023-02-25T20:52:39.608Z,101476.19
2023-02-25T20:55:11.810Z,101472.56
2023-02-25T20:57:43.779Z,101447.03
2023-02-25T21:00:16.806Z,101472.16
2023-02-25T21:02:48.883Z,101480.59
2023-02-25T21:05:20.918Z,101477.91
2023-02-25T21:07:52.929Z,101471.19
2023-02-25T21:10:24.962Z,101486.16
2023-02-25T21:12:56.866Z,101484.13
2023-02-25T21:15:28.837Z,101482.25
2023-02-25T21:18:00.748Z,101492.44
2023-02-25T21:20:33.289Z,101488.06
2023-02-25T21:23:05.332Z,101492.56
2023-02-25T21:25:37.292Z,101496.06
2023-02-25T21:28:09.294Z,101502.88
2023-02-25T21:30:41.408Z,101503.69
2023-02-25T21:33:13.808Z,101509.41
2023-02-25T21:35:52.989Z,101514.94
2023-02-25T21:38:25.464Z,101520.16
2023-02-25T21:41:03.915Z,101512.00
2023-02-25T21:43:36.488Z,101529.34
2023-02-25T21:46:12.648Z,101523.22
2023-02-25T21:48:47.363Z,101515.72
2023-02-25T21:51:25.375Z,101502.09
2023-02-25T21:54:00.356Z,101523.53
2023-02-25T21:56:32.884Z,101531.34
2023-02-25T21:59:05.981Z,101521.66
2023-02-25T22:01:41.397Z,101516.72
2023-02-25T22:04:13.634Z,101533.97
2023-02-25T22:06:48.796Z,101534.56
2023-02-25T22:09:21.016Z,101533.66
2023-02-25T22:11:53.098Z,101529.25
2023-02-25T22:14:26.287Z,101534.56
2023-02-25T22:16:59.510Z,101542.38
2023-02-25T22:19:32.502Z,101542.28
2023-02-25T22:22:04.497Z,101545.38
2023-02-25T22:24:36.552Z,101548.69
2023-02-25T22:27:08.658Z,101536.75
2023-02-25T22:29:41.393Z,101552.66
2023-02-25T22:32:13.598Z,101560.47
2023-02-25T22:34:45.736Z,101558.69
2023-02-25T22:37:17.780Z,101563.78
2023-02-25T22:39:49.741Z,101558.25
2023-02-25T22:42:21.738Z,101555.56
2023-02-25T22:44:53.719Z,101555.56
2023-02-25T22:47:25.962Z,101559.88
2023-02-25T22:49:57.879Z,101560.78
2023-02-25T22:52:30.213Z,101560.38
2023-02-25T22:55:02.290Z,101555.81
2023-02-25T22:57:34.229Z,101559.66
2023-02-25T23:00:16.734Z,101567.34
2023-02-25T23:02:48.748Z,101568.19
2023-02-25T23:05:20.673Z,101561.94
2023-02-25T23:07:52.661Z,101568.75
2023-02-25T23:10:25.103Z,101554.22
2023-02-25T23:13:08.075Z,101555.00
2023-02-25T23:15:42.257Z,101559.72
2023-02-25T23:18:16.149Z,101568.16
2023-02-25T23:20:48.824Z,101574.84
2023-02-25T23:23:20.917Z,101581.53
2023-02-25T23:25:54.404Z,101575.22
2023-02-25T23:28:26.668Z,101571.50
2023-02-25T23:30:58.667Z,101579.31
2023-02-25T23:33:32.446Z,101569.47
2023-02-25T23:36:06.477Z,101570.03
2023-02-25T23:38:38.493Z,101570.84
2023-02-25T23:41:10.542Z,101568.03
2023-02-25T23:43:42.456Z,101578.34
2023-02-25T23:46:14.466Z,101586.25
2023-02-25T23:48:46.777Z,101571.69
2023-02-25T23:51:18.776Z,101586.81
2023-02-25T23:53:59.691Z,101597.81
2023-02-25T23:56:33.712Z,101594.09
2023-02-25T23:59:05.758Z,101591.38
